sensor_id;sensor_type;location;lat;lon;timestamp;pressure;altitude;pressure_sealevel;temperature;humidity
11017;BME280;54687;50.800;6.772;2024-02-26T00:01:44;99611.13;;;-144.06;57.82
11017;BME280;54687;50.800;6.772;2024-02-26T00:04:11;99621.72;;;-144.06;58.16
11017;BME280;54687;50.800;6.772;2024-02-26T00:06:38;99598.41;;;-144.06;58.37
11017;BME280;54687;50.800;6.772;2024-02-26T00:09:06;99621.72;;;-144.06;58.05
11017;BME280;54687;50.800;6.772;2024-02-26T00:11:33;99581.47;;;-144.06;58.57
11017;BME280;54687;50.800;6.772;2024-02-26T00:14:00;99589.94;;;-144.06;58.42
11017;BME280;54687;50.800;6.772;2024-02-26T00:16:26;99606.88;;;-144.06;58.13
11017;BME280;54687;50.800;6.772;2024-02-26T00:18:54;99625.97;;;-144.06;58.39
11017;BME280;54687;50.800;6.772;2024-02-26T00:21:21;99606.88;;;-144.06;58.29
11017;BME280;54687;50.800;6.772;2024-02-26T00:23:49;99617.50;;;-144.06;58.39
11017;BME280;54687;50.800;6.772;2024-02-26T00:26:15;99606.88;;;-144.06;58.38
11017;BME280;54687;50.800;6.772;2024-02-26T00:28:42;99611.13;;;-144.06;58.24
11017;BME280;54687;50.800;6.772;2024-02-26T00:31:09;99632.31;;;-144.06;58.46
11017;BME280;54687;50.800;6.772;2024-02-26T00:33:36;99577.22;;;-144.06;58.13
11017;BME280;54687;50.800;6.772;2024-02-26T00:36:05;99606.88;;;-144.06;58.25
11017;BME280;54687;50.800;6.772;2024-02-26T00:38:32;99640.81;;;-144.06;58.51
11017;BME280;54687;50.800;6.772;2024-02-26T00:40:59;99623.84;;;-144.06;58.50
11017;BME280;54687;50.800;6.772;2024-02-26T00:43:25;99623.84;;;-144.06;58.83
11017;BME280;54687;50.800;6.772;2024-02-26T00:45:52;99585.69;;;-144.06;59.01
11017;BME280;54687;50.800;6.772;2024-02-26T00:48:19;99640.81;;;-144.06;59.37
11017;BME280;54687;50.800;6.772;2024-02-26T00:50:45;99619.59;;;-144.06;59.67
11017;BME280;54687;50.800;6.772;2024-02-26T00:53:13;99651.41;;;-144.06;59.77
11017;BME280;54687;50.800;6.772;2024-02-26T00:55:40;99657.75;;;-144.06;60.09
11017;BME280;54687;50.800;6.772;2024-02-26T00:58:06;99628.09;;;-144.06;60.01
11017;BME280;54687;50.800;6.772;2024-02-26T01:00:33;99655.66;;;-144.06;60.15
11017;BME280;54687;50.800;6.772;2024-02-26T01:02:59;99630.22;;;-144.06;60.13
11017;BME280;54687;50.800;6.772;2024-02-26T01:05:26;99632.31;;;-144.06;60.28
11017;BME280;54687;50.800;6.772;2024-02-26T01:07:52;99632.31;;;-144.06;60.69
11017;BME280;54687;50.800;6.772;2024-02-26T01:10:20;99659.88;;;-144.06;60.67
11017;BME280;54687;50.800;6.772;2024-02-26T01:12:47;99623.84;;;-144.06;60.46
11017;BME280;54687;50.800;6.772;2024-02-26T01:15:14;99628.09;;;-144.06;60.60
11017;BME280;54687;50.800;6.772;2024-02-26T01:17:42;99636.56;;;-144.06;61.09
11017;BME280;54687;50.800;6.772;2024-02-26T01:20:10;99632.31;;;-144.06;60.85
11017;BME280;54687;50.800;6.772;2024-02-26T01:22:38;99647.16;;;-144.06;61.19
11017;BME280;54687;50.800;6.772;2024-02-26T01:25:07;99623.84;;;-144.06;61.07
11017;BME280;54687;50.800;6.772;2024-02-26T01:27:38;99623.84;;;-144.06;61.26
11017;BME280;54687;50.800;6.772;2024-02-26T01:30:09;99628.09;;;-144.06;61.42
11017;BME280;54687;50.800;6.772;2024-02-26T01:32:37;99577.22;;;-144.06;61.38
11017;BME280;54687;50.800;6.772;2024-02-26T01:35:05;99625.97;;;-144.06;61.37
11017;BME280;54687;50.800;6.772;2024-02-26T01:37:37;99606.88;;;-144.06;61.61
11017;BME280;54687;50.800;6.772;2024-02-26T01:40:10;99634.44;;;-144.06;61.83
11017;BME280;54687;50.800;6.772;2024-02-26T01:42:44;99647.16;;;-144.06;61.50
11017;BME280;54687;50.800;6.772;2024-02-26T01:45:14;99638.69;;;-144.06;61.58
11017;BME280;54687;50.800;6.772;2024-02-26T01:47:49;99623.84;;;-144.06;61.62
11017;BME280;54687;50.800;6.772;2024-02-26T01:50:20;99676.84;;;-144.06;61.94
11017;BME280;54687;50.800;6.772;2024-02-26T01:52:50;99623.84;;;-144.06;62.44
11017;BME280;54687;50.800;6.772;2024-02-26T01:55:18;99721.38;;;-144.06;62.37
11017;BME280;54687;50.800;6.772;2024-02-26T01:57:50;99668.38;;;-144.06;62.87
11017;BME280;54687;50.800;6.772;2024-02-26T02:00:22;99662.00;;;-144.06;63.00
11017;BME280;54687;50.800;6.772;2024-02-26T02:02:50;99666.25;;;-144.06;63.20
11017;BME280;54687;50.800;6.772;2024-02-26T02:05:19;99642.94;;;-144.06;63.33
11017;BME280;54687;50.800;6.772;2024-02-26T02:07:49;99670.50;;;-144.06;63.64
11017;BME280;54687;50.800;6.772;2024-02-26T02:10:19;99640.81;;;-144.06;63.47
11017;BME280;54687;50.800;6.772;2024-02-26T02:12:50;99640.81;;;-144.06;63.19
11017;BME280;54687;50.800;6.772;2024-02-26T02:15:17;99657.75;;;-144.06;63.40
11017;BME280;54687;50.800;6.772;2024-02-26T02:17:43;99666.25;;;-144.06;63.71
11017;BME280;54687;50.800;6.772;2024-02-26T02:20:16;99655.66;;;-144.06;63.66
11017;BME280;54687;50.800;6.772;2024-02-26T02:22:46;99640.81;;;-144.06;63.92
11017;BME280;54687;50.800;6.772;2024-02-26T02:25:13;99674.72;;;-144.06;63.88
11017;BME280;54687;50.800;6.772;2024-02-26T02:27:42;99852.81;;;-144.06;63.58
11017;BME280;54687;50.800;6.772;2024-02-26T02:30:11;99681.09;;;-144.06;63.94
11017;BME280;54687;50.800;6.772;2024-02-26T02:32:40;99674.72;;;-144.06;63.91
11017;BME280;54687;50.800;6.772;2024-02-26T02:35:09;99640.81;;;-144.06;63.97
11017;BME280;54687;50.800;6.772;2024-02-26T02:37:36;99700.16;;;-144.06;63.96
11017;BME280;54687;50.800;6.772;2024-02-26T02:40:06;99687.44;;;-144.06;63.88
11017;BME280;54687;50.800;6.772;2024-02-26T02:42:33;99710.75;;;-144.06;64.00
11017;BME280;54687;50.800;6.772;2024-02-26T02:45:00;99549.66;;;-144.06;63.76
11017;BME280;54687;50.800;6.772;2024-02-26T02:47:28;99655.66;;;-144.06;64.06
11017;BME280;54687;50.800;6.772;2024-02-26T02:49:55;99687.44;;;-144.06;64.29
11017;BME280;54687;50.800;6.772;2024-02-26T02:52:22;99664.13;;;-144.06;64.32
11017;BME280;54687;50.800;6.772;2024-02-26T02:54:48;99606.88;;;-144.06;64.56
11017;BME280;54687;50.800;6.772;2024-02-26T02:57:16;99615.38;;;-144.06;64.25
11017;BME280;54687;50.800;6.772;2024-02-26T02:59:43;99617.50;;;-144.06;64.32
11017;BME280;54687;50.800;6.772;2024-02-26T03:02:10;99685.31;;;-144.06;64.92
11017;BME280;54687;50.800;6.772;2024-02-26T03:04:38;99657.75;;;-144.06;64.87
11017;BME280;54687;50.800;6.772;2024-02-26T03:07:05;99666.25;;;-144.06;65.24
11017;BME280;54687;50.800;6.772;2024-02-26T03:09:33;99666.25;;;-144.06;65.17
11017;BME280;54687;50.800;6.772;2024-02-26T03:12:00;99647.16;;;-144.06;64.91
11017;BME280;54687;50.800;6.772;2024-02-26T03:14:28;99691.69;;;-144.06;65.10
11017;BME280;54687;50.800;6.772;2024-02-26T03:16:55;99636.56;;;-144.06;64.93
11017;BME280;54687;50.800;6.772;2024-02-26T03:19:22;99666.25;;;-144.06;64.85
11017;BME280;54687;50.800;6.772;2024-02-26T03:21:49;99653.53;;;-144.06;64.77
11017;BME280;54687;50.800;6.772;2024-02-26T03:24:16;99670.50;;;-144.06;64.49
11017;BME280;54687;50.800;6.772;2024-02-26T03:26:42;99433.06;;;-144.06;64.22
11017;BME280;54687;50.800;6.772;2024-02-26T03:29:09;99704.41;;;-144.06;64.59
11017;BME280;54687;50.800;6.772;2024-02-26T03:31:37;99664.13;;;-144.06;64.40
11017;BME280;54687;50.800;6.772;2024-02-26T03:34:03;99640.81;;;-144.06;64.93
11017;BME280;54687;50.800;6.772;2024-02-26T03:36:30;99659.88;;;-144.06;64.88
11017;BME280;54687;50.800;6.772;2024-02-26T03:38:57;99659.88;;;-144.06;64.79
11017;BME280;54687;50.800;6.772;2024-02-26T03:41:24;99645.03;;;-144.06;64.94
11017;BME280;54687;50.800;6.772;2024-02-26T03:43:49;99674.72;;;-144.06;65.26
11017;BME280;54687;50.800;6.772;2024-02-26T03:46:16;99657.75;;;-144.06;65.03
11017;BME280;54687;50.800;6.772;2024-02-26T03:48:44;99655.66;;;-144.06;65.25
11017;BME280;54687;50.800;6.772;2024-02-26T03:51:10;99662.00;;;-144.06;65.24
11017;BME280;54687;50.800;6.772;2024-02-26T03:53:37;99670.50;;;-144.06;65.32
11017;BME280;54687;50.800;6.772;2024-02-26T03:56:04;99662.00;;;-144.06;65.36
11017;BME280;54687;50.800;6.772;2024-02-26T03:58:31;99676.84;;;-144.06;65.46
11017;BME280;54687;50.800;6.772;2024-02-26T04:00:58;99681.09;;;-144.06;65.53
11017;BME280;54687;50.800;6.772;2024-02-26T04:03:25;99606.88;;;-144.06;65.67
11017;BME280;54687;50.800;6.772;2024-02-26T04:05:53;99668.38;;;-144.06;65.55
11017;BME280;54687;50.800;6.772;2024-02-26T04:09:42;99662.00;;;-144.06;65.43
11017;BME280;54687;50.800;6.772;2024-02-26T04:12:26;99636.56;;;-144.06;65.36
11017;BME280;54687;50.800;6.772;2024-02-26T04:15:10;99560.25;;;-144.06;65.68
11017;BME280;54687;50.800;6.772;2024-02-26T04:18:00;99666.25;;;-144.06;65.83
11017;BME280;54687;50.800;6.772;2024-02-26T04:20:41;99666.25;;;-144.06;65.87
11017;BME280;54687;50.800;6.772;2024-02-26T04:23:15;99636.56;;;-144.06;66.12
11017;BME280;54687;50.800;6.772;2024-02-26T04:25:50;99687.44;;;-144.06;66.37
11017;BME280;54687;50.800;6.772;2024-02-26T04:28:25;99625.97;;;-144.06;66.32
11017;BME280;54687;50.800;6.772;2024-02-26T04:30:57;99691.69;;;-144.06;66.46
11017;BME280;54687;50.800;6.772;2024-02-26T04:33:33;99691.69;;;-144.06;66.50
11017;BME280;54687;50.800;6.772;2024-02-26T04:36:04;99662.00;;;-144.06;66.63
11017;BME280;54687;50.800;6.772;2024-02-26T04:38:44;99662.00;;;-144.06;66.76
11017;BME280;54687;50.800;6.772;2024-02-26T04:41:31;99702.28;;;-144.06;66.90
11017;BME280;54687;50.800;6.772;2024-02-26T04:44:16;99700.16;;;-144.06;67.18
11017;BME280;54687;50.800;6.772;2024-02-26T04:46:50;99695.94;;;-144.06;67.37
11017;BME280;54687;50.800;6.772;2024-02-26T04:49:24;99685.31;;;-144.06;67.12
11017;BME280;54687;50.800;6.772;2024-02-26T04:51:59;99727.72;;;-144.06;67.03
11017;BME280;54687;50.800;6.772;2024-02-26T04:54:32;99700.16;;;-144.06;67.10
11017;BME280;54687;50.800;6.772;2024-02-26T04:57:01;99712.88;;;-144.06;67.62
11017;BME280;54687;50.800;6.772;2024-02-26T04:59:34;99695.94;;;-144.06;67.75
11017;BME280;54687;50.800;6.772;2024-02-26T05:02:12;99712.88;;;-144.06;67.93
11017;BME280;54687;50.800;6.772;2024-02-26T05:04:39;99670.50;;;-144.06;68.08
11017;BME280;54687;50.800;6.772;2024-02-26T05:07:15;99700.16;;;-144.06;68.17
11017;BME280;54687;50.800;6.772;2024-02-26T05:09:51;99717.13;;;-144.06;68.40
11017;BME280;54687;50.800;6.772;2024-02-26T05:12:21;99683.22;;;-144.06;68.39
11017;BME280;54687;50.800;6.772;2024-02-26T05:14:50;99700.16;;;-144.06;68.25
11017;BME280;54687;50.800;6.772;2024-02-26T05:17:17;99717.13;;;-144.06;68.53
11017;BME280;54687;50.800;6.772;2024-02-26T05:19:57;99721.38;;;-144.06;68.55
11017;BME280;54687;50.800;6.772;2024-02-26T05:22:26;99687.44;;;-144.06;68.63
11017;BME280;54687;50.800;6.772;2024-02-26T05:25:00;99691.69;;;-144.06;68.51
11017;BME280;54687;50.800;6.772;2024-02-26T05:27:33;99695.94;;;-144.06;68.50
11017;BME280;54687;50.800;6.772;2024-02-26T05:30:10;99689.56;;;-144.06;68.58
11017;BME280;54687;50.800;6.772;2024-02-26T05:32:59;99712.88;;;-144.06;69.08
11017;BME280;54687;50.800;6.772;2024-02-26T05:35:32;99712.88;;;-144.06;69.30
11017;BME280;54687;50.800;6.772;2024-02-26T05:38:44;99662.00;;;-144.06;69.06
11017;BME280;54687;50.800;6.772;2024-02-26T05:41:18;99687.44;;;-144.06;69.31
11017;BME280;54687;50.800;6.772;2024-02-26T05:43:55;99746.81;;;-144.06;69.25
11017;BME280;54687;50.800;6.772;2024-02-26T05:46:24;99695.94;;;-144.06;69.37
11017;BME280;54687;50.800;6.772;2024-02-26T05:49:02;99685.31;;;-144.06;69.58
11017;BME280;54687;50.800;6.772;2024-02-26T05:51:30;99729.84;;;-144.06;69.65
11017;BME280;54687;50.800;6.772;2024-02-26T05:54:11;99706.53;;;-144.06;69.50
11017;BME280;54687;50.800;6.772;2024-02-26T05:56:46;99685.31;;;-144.06;69.41
11017;BME280;54687;50.800;6.772;2024-02-26T05:59:16;99738.31;;;-144.06;69.58
11017;BME280;54687;50.800;6.772;2024-02-26T06:01:51;99729.84;;;-144.06;69.48
11017;BME280;54687;50.800;6.772;2024-02-26T06:04:23;99738.31;;;-144.06;69.64
11017;BME280;54687;50.800;6.772;2024-02-26T06:06:59;99700.16;;;-144.06;69.80
11017;BME280;54687;50.800;6.772;2024-02-26T06:09:46;99725.59;;;-144.06;69.51
11017;BME280;54687;50.800;6.772;2024-02-26T06:12:16;99727.72;;;-144.06;69.59
11017;BME280;54687;50.800;6.772;2024-02-26T06:14:59;99740.44;;;-144.06;69.62
11017;BME280;54687;50.800;6.772;2024-02-26T06:17:36;99738.31;;;-144.06;69.64
11017;BME280;54687;50.800;6.772;2024-02-26T06:23:58;99736.19;;;-144.06;69.27
11017;BME280;54687;50.800;6.772;2024-02-26T06:26:41;99666.25;;;-144.06;69.63
11017;BME280;54687;50.800;6.772;2024-02-26T06:29:15;99744.69;;;-144.06;69.39
11017;BME280;54687;50.800;6.772;2024-02-26T06:31:54;99702.28;;;-144.06;69.39
11017;BME280;54687;50.800;6.772;2024-02-26T06:34:30;99657.75;;;-144.06;69.43
11017;BME280;54687;50.800;6.772;2024-02-26T06:37:00;99738.31;;;-144.06;69.27
11017;BME280;54687;50.800;6.772;2024-02-26T06:39:44;99708.66;;;-144.06;69.24
11017;BME280;54687;50.800;6.772;2024-02-26T06:42:11;99727.72;;;-144.06;69.13
11017;BME280;54687;50.800;6.772;2024-02-26T06:44:43;99717.13;;;-144.06;69.26
11017;BME280;54687;50.800;6.772;2024-02-26T06:47:16;99712.88;;;-144.06;69.18
11017;BME280;54687;50.800;6.772;2024-02-26T06:50:12;99653.53;;;-144.06;69.16
11017;BME280;54687;50.800;6.772;2024-02-26T06:56:07;99698.03;;;-144.06;68.92
11017;BME280;54687;50.800;6.772;2024-02-26T06:58:50;99729.84;;;-144.06;69.22
11017;BME280;54687;50.800;6.772;2024-02-26T07:01:24;99704.41;;;-144.06;69.33
11017;BME280;54687;50.800;6.772;2024-02-26T07:07:34;99494.53;;;-144.06;69.48
11017;BME280;54687;50.800;6.772;2024-02-26T07:10:10;99704.41;;;-144.06;69.53
11017;BME280;54687;50.800;6.772;2024-02-26T07:12:44;99954.56;;;-144.06;69.38
11017;BME280;54687;50.800;6.772;2024-02-26T07:18:19;99736.19;;;-144.06;69.41
11017;BME280;54687;50.800;6.772;2024-02-26T07:24:18;99691.69;;;-144.06;69.87
11017;BME280;54687;50.800;6.772;2024-02-26T07:27:18;99704.41;;;-144.06;69.77
11017;BME280;54687;50.800;6.772;2024-02-26T07:30:16;99695.94;;;-144.06;69.70
11017;BME280;54687;50.800;6.772;2024-02-26T07:33:01;99700.16;;;-144.06;69.83
11017;BME280;54687;50.800;6.772;2024-02-26T07:42:03;99700.16;;;-144.06;69.85
11017;BME280;54687;50.800;6.772;2024-02-26T07:44:50;99678.97;;;-144.06;70.10
11017;BME280;54687;50.800;6.772;2024-02-26T07:47:38;99676.84;;;-144.06;69.94
11017;BME280;54687;50.800;6.772;2024-02-26T07:50:23;99662.00;;;-144.06;70.19
11017;BME280;54687;50.800;6.772;2024-02-26T07:53:26;99717.13;;;-144.06;70.14
11017;BME280;54687;50.800;6.772;2024-02-26T07:55:52;99734.09;;;-144.06;69.95
11017;BME280;54687;50.800;6.772;2024-02-26T07:58:19;99708.66;;;-144.06;69.99
11017;BME280;54687;50.800;6.772;2024-02-26T08:00:45;99708.66;;;-144.06;70.18
11017;BME280;54687;50.800;6.772;2024-02-26T08:03:12;99721.38;;;-144.06;70.07
11017;BME280;54687;50.800;6.772;2024-02-26T08:05:41;99721.38;;;-144.06;70.09
11017;BME280;54687;50.800;6.772;2024-02-26T08:08:08;99723.47;;;-144.06;69.92
11017;BME280;54687;50.800;6.772;2024-02-26T08:10:37;99708.66;;;-144.06;69.64
11017;BME280;54687;50.800;6.772;2024-02-26T08:13:04;99742.56;;;-144.06;69.90
11017;BME280;54687;50.800;6.772;2024-02-26T08:15:31;99655.66;;;-144.06;70.34
11017;BME280;54687;50.800;6.772;2024-02-26T08:17:59;99575.09;;;-144.06;69.77
11017;BME280;54687;50.800;6.772;2024-02-26T08:20:27;99712.88;;;-144.06;69.97
11017;BME280;54687;50.800;6.772;2024-02-26T08:22:54;99857.03;;;-144.06;69.84
11017;BME280;54687;50.800;6.772;2024-02-26T08:25:21;99704.41;;;-144.06;69.78
11017;BME280;54687;50.800;6.772;2024-02-26T08:27:50;99683.22;;;-144.06;69.71
11017;BME280;54687;50.800;6.772;2024-02-26T08:30:17;99729.84;;;-144.06;69.72
11017;BME280;54687;50.800;6.772;2024-02-26T08:32:44;99710.75;;;-144.06;69.76
11017;BME280;54687;50.800;6.772;2024-02-26T08:35:11;99695.94;;;-144.06;69.55
11017;BME280;54687;50.800;6.772;2024-02-26T08:37:38;99704.41;;;-144.06;69.94
11017;BME280;54687;50.800;6.772;2024-02-26T08:40:06;99698.03;;;-144.06;69.79
11017;BME280;54687;50.800;6.772;2024-02-26T08:42:32;99712.88;;;-144.06;69.99
11017;BME280;54687;50.800;6.772;2024-02-26T08:45:01;99691.69;;;-144.06;69.93
11017;BME280;54687;50.800;6.772;2024-02-26T08:47:28;99721.38;;;-144.06;69.93
11017;BME280;54687;50.800;6.772;2024-02-26T08:49:55;99687.44;;;-144.06;69.83
11017;BME280;54687;50.800;6.772;2024-02-26T08:52:22;99691.69;;;-144.06;69.70
11017;BME280;54687;50.800;6.772;2024-02-26T08:54:48;99706.53;;;-144.06;69.46
11017;BME280;54687;50.800;6.772;2024-02-26T08:57:15;99695.94;;;-144.06;69.47
11017;BME280;54687;50.800;6.772;2024-02-26T08:59:42;99689.56;;;-144.06;69.80
11017;BME280;54687;50.800;6.772;2024-02-26T09:02:09;99708.66;;;-144.06;69.65
11017;BME280;54687;50.800;6.772;2024-02-26T09:04:36;99715.00;;;-144.06;69.61
11017;BME280;54687;50.800;6.772;2024-02-26T09:07:03;99670.50;;;-144.06;69.77
11017;BME280;54687;50.800;6.772;2024-02-26T09:09:29;99687.44;;;-144.06;69.70
11017;BME280;54687;50.800;6.772;2024-02-26T09:11:56;99712.88;;;-144.06;69.70
11017;BME280;54687;50.800;6.772;2024-02-26T09:14:23;99715.00;;;-144.06;69.78
11017;BME280;54687;50.800;6.772;2024-02-26T09:16:50;99721.38;;;-144.06;70.04
11017;BME280;54687;50.800;6.772;2024-02-26T09:19:19;99708.66;;;-144.06;69.91
11017;BME280;54687;50.800;6.772;2024-02-26T09:21:45;99712.88;;;-144.06;70.03
11017;BME280;54687;50.800;6.772;2024-02-26T09:24:12;99704.41;;;-144.06;69.83
11017;BME280;54687;50.800;6.772;2024-02-26T09:26:40;99827.38;;;-144.06;69.94
11017;BME280;54687;50.800;6.772;2024-02-26T09:29:06;99712.88;;;-144.06;69.91
11017;BME280;54687;50.800;6.772;2024-02-26T09:31:33;100196.25;;;-144.06;69.77
11017;BME280;54687;50.800;6.772;2024-02-26T09:34:00;99719.25;;;-144.06;69.82
11017;BME280;54687;50.800;6.772;2024-02-26T09:36:28;99731.97;;;-144.06;69.53
11017;BME280;54687;50.800;6.772;2024-02-26T09:38:55;99755.28;;;-144.06;69.85
11017;BME280;54687;50.800;6.772;2024-02-26T09:41:21;99708.66;;;-144.06;69.90
11017;BME280;54687;50.800;6.772;2024-02-26T09:43:50;99621.72;;;-144.06;69.73
11017;BME280;54687;50.800;6.772;2024-02-26T09:46:19;99717.13;;;-144.06;69.67
11017;BME280;54687;50.800;6.772;2024-02-26T09:48:47;99704.41;;;-144.06;69.65
11017;BME280;54687;50.800;6.772;2024-02-26T09:51:14;99704.41;;;-144.06;69.57
11017;BME280;54687;50.800;6.772;2024-02-26T09:53:43;99702.28;;;-144.06;69.48
11017;BME280;54687;50.800;6.772;2024-02-26T09:56:11;99676.84;;;-144.06;69.53
11017;BME280;54687;50.800;6.772;2024-02-26T09:58:39;99704.41;;;-144.06;69.72
11017;BME280;54687;50.800;6.772;2024-02-26T10:01:11;99700.16;;;-144.06;69.69
11017;BME280;54687;50.800;6.772;2024-02-26T10:03:38;99681.09;;;-144.06;69.53
11017;BME280;54687;50.800;6.772;2024-02-26T10:06:06;99687.44;;;-144.06;69.51
11017;BME280;54687;50.800;6.772;2024-02-26T10:08:35;99664.13;;;-144.06;69.24
11017;BME280;54687;50.800;6.772;2024-02-26T10:11:04;99655.66;;;-144.06;68.58
11017;BME280;54687;50.800;6.772;2024-02-26T10:13:31;99657.75;;;-144.06;68.74
11017;BME280;54687;50.800;6.772;2024-02-26T10:15:58;99611.13;;;-144.06;68.74
11017;BME280;54687;50.800;6.772;2024-02-26T10:18:24;99632.31;;;-144.06;67.64
11017;BME280;54687;50.800;6.772;2024-02-26T10:21:00;99524.22;;;-144.06;67.79
11017;BME280;54687;50.800;6.772;2024-02-26T10:23:26;99581.47;;;-144.06;67.81
11017;BME280;54687;50.800;6.772;2024-02-26T10:25:53;99640.81;;;-144.06;67.72
11017;BME280;54687;50.800;6.772;2024-02-26T10:28:22;99623.84;;;-144.06;67.16
11017;BME280;54687;50.800;6.772;2024-02-26T10:30:51;99602.66;;;-144.06;67.34
11017;BME280;54687;50.800;6.772;2024-02-26T10:33:18;99609.00;;;-144.06;67.17
11017;BME280;54687;50.800;6.772;2024-02-26T10:35:45;99606.88;;;-144.06;66.66
11017;BME280;54687;50.800;6.772;2024-02-26T10:38:12;99581.47;;;-144.06;66.06
11017;BME280;54687;50.800;6.772;2024-02-26T10:40:42;99577.22;;;-144.06;66.35
11017;BME280;54687;50.800;6.772;2024-02-26T10:43:08;99562.38;;;-144.06;66.23
11017;BME280;54687;50.800;6.772;2024-02-26T10:45:36;99625.97;;;-144.06;66.34
11017;BME280;54687;50.800;6.772;2024-02-26T10:48:09;99600.53;;;-144.06;65.95
11017;BME280;54687;50.800;6.772;2024-02-26T10:50:36;99560.25;;;-144.06;65.62
11017;BME280;54687;50.800;6.772;2024-02-26T10:53:05;99587.81;;;-144.06;65.79
11017;BME280;54687;50.800;6.772;2024-02-26T10:55:34;99589.94;;;-144.06;65.80
11017;BME280;54687;50.800;6.772;2024-02-26T10:58:03;99581.47;;;-144.06;65.43
11017;BME280;54687;50.800;6.772;2024-02-26T11:00:30;99572.97;;;-144.06;65.07
11017;BME280;54687;50.800;6.772;2024-02-26T11:02:59;99589.94;;;-144.06;65.46
11017;BME280;54687;50.800;6.772;2024-02-26T11:05:28;99556.00;;;-144.06;65.59
11017;BME280;54687;50.800;6.772;2024-02-26T11:07:56;99568.72;;;-144.06;65.98
11017;BME280;54687;50.800;6.772;2024-02-26T11:10:23;99598.41;;;-144.06;65.82
11017;BME280;54687;50.800;6.772;2024-02-26T11:12:52;99589.94;;;-144.06;65.37
11017;BME280;54687;50.800;6.772;2024-02-26T11:15:19;99556.00;;;-144.06;65.05
11017;BME280;54687;50.800;6.772;2024-02-26T11:17:47;99539.06;;;-144.06;65.76
11017;BME280;54687;50.800;6.772;2024-02-26T11:20:15;99331.31;;;-144.06;65.31
11017;BME280;54687;50.800;6.772;2024-02-26T11:22:43;99498.78;;;-144.06;65.05
11017;BME280;54687;50.800;6.772;2024-02-26T11:25:10;99524.22;;;-144.06;65.21
11017;BME280;54687;50.800;6.772;2024-02-26T11:27:41;99407.63;;;-144.06;64.45
11017;BME280;54687;50.800;6.772;2024-02-26T11:30:09;99547.53;;;-144.06;64.16
11017;BME280;54687;50.800;6.772;2024-02-26T11:32:37;99526.34;;;-144.06;64.60
11017;BME280;54687;50.800;6.772;2024-02-26T11:35:05;99560.25;;;-144.06;64.36
11017;BME280;54687;50.800;6.772;2024-02-26T11:37:34;99532.69;;;-144.06;63.95
11017;BME280;54687;50.800;6.772;2024-02-26T11:40:01;99486.06;;;-144.06;63.86
11017;BME280;54687;50.800;6.772;2024-02-26T11:42:29;99553.91;;;-144.06;64.40
11017;BME280;54687;50.800;6.772;2024-02-26T11:44:56;99581.47;;;-144.06;64.50
11017;BME280;54687;50.800;6.772;2024-02-26T11:47:27;99534.81;;;-144.06;64.64
11017;BME280;54687;50.800;6.772;2024-02-26T11:49:53;99577.22;;;-144.06;64.91
11017;BME280;54687;50.800;6.772;2024-02-26T11:52:20;99545.41;;;-144.06;64.82
11017;BME280;54687;50.800;6.772;2024-02-26T11:54:49;99585.69;;;-144.06;64.72
11017;BME280;54687;50.800;6.772;2024-02-26T11:57:23;99568.72;;;-144.06;64.93
11017;BME280;54687;50.800;6.772;2024-02-26T11:59:50;99566.63;;;-144.06;64.79
11017;BME280;54687;50.800;6.772;2024-02-26T12:02:44;99534.81;;;-144.06;64.79
11017;BME280;54687;50.800;6.772;2024-02-26T12:05:12;99424.59;;;-144.06;64.72
11017;BME280;54687;50.800;6.772;2024-02-26T12:07:43;99530.56;;;-144.06;64.61
11017;BME280;54687;50.800;6.772;2024-02-26T12:10:25;99481.81;;;-144.06;64.38
11017;BME280;54687;50.800;6.772;2024-02-26T12:13:00;99511.50;;;-144.06;64.60
11017;BME280;54687;50.800;6.772;2024-02-26T12:15:32;99530.56;;;-144.06;65.21
11017;BME280;54687;50.800;6.772;2024-02-26T12:18:01;99541.19;;;-144.06;65.27
11017;BME280;54687;50.800;6.772;2024-02-26T12:20:28;99560.25;;;-144.06;65.54
11017;BME280;54687;50.800;6.772;2024-02-26T12:22:55;99583.56;;;-144.06;65.37
11017;BME280;54687;50.800;6.772;2024-02-26T12:25:25;99541.19;;;-144.06;65.77
11017;BME280;54687;50.800;6.772;2024-02-26T12:27:53;99551.78;;;-144.06;66.09
11017;BME280;54687;50.800;6.772;2024-02-26T12:30:20;99551.78;;;-144.06;66.15
11017;BME280;54687;50.800;6.772;2024-02-26T12:32:47;99560.25;;;-144.06;66.49
11017;BME280;54687;50.800;6.772;2024-02-26T12:35:14;99594.19;;;-144.06;66.43
11017;BME280;54687;50.800;6.772;2024-02-26T12:37:41;99606.88;;;-144.06;66.78
11017;BME280;54687;50.800;6.772;2024-02-26T12:40:09;99560.25;;;-144.06;67.00
11017;BME280;54687;50.800;6.772;2024-02-26T12:42:38;99604.78;;;-144.06;67.19
11017;BME280;54687;50.800;6.772;2024-02-26T12:45:07;99572.97;;;-144.06;67.39
11017;BME280;54687;50.800;6.772;2024-02-26T12:47:36;99547.53;;;-144.06;67.44
11017;BME280;54687;50.800;6.772;2024-02-26T12:50:03;99572.97;;;-144.06;67.40
11017;BME280;54687;50.800;6.772;2024-02-26T12:52:31;99509.38;;;-144.06;67.67
11017;BME280;54687;50.800;6.772;2024-02-26T12:54:58;99549.66;;;-144.06;67.39
11017;BME280;54687;50.800;6.772;2024-02-26T12:57:25;99564.50;;;-144.06;67.82
11017;BME280;54687;50.800;6.772;2024-02-26T12:59:56;99572.97;;;-144.06;67.38
11017;BME280;54687;50.800;6.772;2024-02-26T13:02:24;99577.22;;;-144.06;66.91
11017;BME280;54687;50.800;6.772;2024-02-26T13:04:52;99534.81;;;-144.06;67.48
11017;BME280;54687;50.800;6.772;2024-02-26T13:07:20;99547.53;;;-144.06;67.20
11017;BME280;54687;50.800;6.772;2024-02-26T13:09:47;99543.28;;;-144.06;67.34
11017;BME280;54687;50.800;6.772;2024-02-26T13:12:14;99564.50;;;-144.06;66.98
11017;BME280;54687;50.800;6.772;2024-02-26T13:14:40;99505.13;;;-144.06;67.13
11017;BME280;54687;50.800;6.772;2024-02-26T13:17:08;99553.91;;;-144.06;66.95
11017;BME280;54687;50.800;6.772;2024-02-26T13:19:35;99462.75;;;-144.06;67.48
11017;BME280;54687;50.800;6.772;2024-02-26T13:22:05;99515.75;;;-144.06;67.58